Time;durP1;ratioP1;P1;durP2;ratioP2;P2;SDS_P1;SDS_P2;PMS_P1;PMS_P2;Temp;Humidity;BMP_temperature;BMP_pressure;BME280_temperature;BME280_humidity;BME280_pressure;Samples;Min_cycle;Max_cycle;Signal;HPM_P1;HPM_P2
2023/09/08 00:00:47;;;;;;;9.27;6.35;;;;;;;19.09;66.40;99253.06;5008113;28;20025;-79
2023/09/08 00:03:12;;;;;;;10.23;6.85;;;;;;;19.06;66.37;99248.25;5005052;28;20050;-79
2023/09/08 00:05:38;;;;;;;9.75;6.15;;;;;;;18.83;66.98;99240.22;5013616;28;20601;-78
2023/09/08 00:08:03;;;;;;;8.98;6.43;;;;;;;18.82;67.12;99247.53;5006240;28;20520;-79
2023/09/08 00:10:29;;;;;;;12.07;6.93;;;;;;;18.69;67.23;99237.44;5008693;28;20081;-79
2023/09/08 00:12:54;;;;;;;13.25;7.18;;;;;;;18.79;67.11;99244.56;5010449;28;21503;-79
2023/09/08 00:15:20;;;;;;;10.27;6.43;;;;;;;18.82;66.94;99238.59;5008464;28;20030;-79
2023/09/08 00:17:47;;;;;;;8.05;5.93;;;;;;;18.63;67.15;99238.59;5014207;28;20095;-79
2023/09/08 00:20:13;;;;;;;9.05;6.30;;;;;;;18.70;67.48;99242.53;5015049;28;20057;-79
2023/09/08 00:22:39;;;;;;;7.68;5.88;;;;;;;18.80;67.21;99241.59;5020331;28;20030;-78
2023/09/08 00:25:05;;;;;;;8.43;6.78;;;;;;;18.68;67.53;99241.22;5018592;28;20049;-78
2023/09/08 00:27:31;;;;;;;8.35;6.28;;;;;;;18.69;66.71;99238.22;5019935;28;20517;-79
2023/09/08 00:29:57;;;;;;;8.70;6.15;;;;;;;18.75;67.07;99233.53;5015742;28;20058;-79
2023/09/08 00:32:22;;;;;;;9.63;7.05;;;;;;;18.79;66.83;99239.97;5007654;28;20423;-78
2023/09/08 00:34:48;;;;;;;7.60;6.03;;;;;;;18.78;66.94;99241.09;5014735;28;20371;-79
2023/09/08 00:37:13;;;;;;;8.70;6.30;;;;;;;18.59;67.19;99240.25;5009249;28;20041;-79
2023/09/08 00:39:38;;;;;;;11.88;6.63;;;;;;;18.52;67.39;99237.91;5023232;28;20077;-79
2023/09/08 00:42:04;;;;;;;11.13;6.53;;;;;;;18.44;68.26;99245.81;5008946;28;20030;-79
2023/09/08 00:44:30;;;;;;;8.65;5.75;;;;;;;18.43;67.85;99222.59;5010364;28;20037;-81
2023/09/08 00:46:56;;;;;;;7.28;6.28;;;;;;;18.42;67.75;99237.19;5014437;28;20042;-81
2023/09/08 00:49:22;;;;;;;13.75;6.68;;;;;;;18.52;67.48;99237.13;5029400;28;20025;-81
2023/09/08 00:51:48;;;;;;;8.43;6.40;;;;;;;18.46;67.01;99232.84;5016203;28;20652;-81
2023/09/08 00:54:14;;;;;;;10.43;6.60;;;;;;;18.47;67.43;99240.69;5022949;28;20461;-80
2023/09/08 00:56:40;;;;;;;10.85;7.05;;;;;;;18.50;67.09;99242.78;5025944;28;20034;-81
2023/09/08 00:59:07;;;;;;;12.18;6.43;;;;;;;18.29;67.59;99235.19;5012158;28;20497;-80
2023/09/08 01:01:34;;;;;;;11.30;6.85;;;;;;;18.32;67.73;99240.03;5011083;28;20036;-79
2023/09/08 01:04:00;;;;;;;10.50;6.30;;;;;;;18.51;67.15;99240.91;5023617;28;20033;-79
2023/09/08 01:06:27;;;;;;;9.18;6.68;;;;;;;18.13;68.70;99233.78;5011959;28;20030;-78
2023/09/08 01:08:53;;;;;;;7.63;6.15;;;;;;;18.27;67.86;99235.50;5004958;28;20038;-78
2023/09/08 01:11:20;;;;;;;10.73;7.05;;;;;;;18.24;67.88;99236.06;5022641;28;20021;-79
2023/09/08 01:13:45;;;;;;;9.90;6.85;;;;;;;18.39;67.97;99230.47;5003228;28;20033;-78
2023/09/08 01:16:10;;;;;;;10.98;6.93;;;;;;;18.37;67.55;99237.28;5000384;28;20037;-79
2023/09/08 01:18:36;;;;;;;8.63;6.68;;;;;;;18.31;67.51;99231.13;5007735;28;20121;-79
2023/09/08 01:21:25;;;;;;;17.27;7.15;;;;;;;18.33;67.72;99231.63;5006356;28;20025;-79
2023/09/08 01:24:05;;;;;;;10.10;6.32;;;;;;;18.32;67.79;99234.63;5003575;28;20474;-78
2023/09/08 01:26:36;;;;;;;10.07;6.63;;;;;;;18.30;67.89;99226.00;5002592;28;20033;-79
2023/09/08 01:29:03;;;;;;;17.52;6.80;;;;;;;18.29;67.46;99227.91;5022756;28;20108;-79
2023/09/08 01:31:29;;;;;;;12.15;6.63;;;;;;;18.35;67.82;99228.63;5016913;28;20046;-79
2023/09/08 01:33:55;;;;;;;10.98;6.97;;;;;;;18.36;67.32;99232.97;5006962;28;20042;-81
2023/09/08 01:36:20;;;;;;;11.48;7.03;;;;;;;18.36;67.52;99236.47;5014312;28;20034;-81
2023/09/08 01:38:46;;;;;;;12.32;6.60;;;;;;;18.18;68.00;99233.72;5030750;28;21512;-82
2023/09/08 01:41:11;;;;;;;10.55;7.13;;;;;;;18.22;67.43;99237.44;5016745;28;20080;-81
2023/09/08 01:43:36;;;;;;;13.85;7.20;;;;;;;18.12;67.76;99237.56;5009059;28;20030;-81
2023/09/08 01:46:02;;;;;;;11.93;5.95;;;;;;;18.12;67.75;99227.56;5024297;28;20074;-83
2023/09/08 01:48:27;;;;;;;13.50;7.13;;;;;;;18.16;67.88;99225.91;5005896;28;20030;-82
2023/09/08 01:50:52;;;;;;;12.30;7.53;;;;;;;17.85;68.25;99230.03;5013075;28;20022;-77
2023/09/08 01:53:18;;;;;;;9.32;7.07;;;;;;;17.81;68.54;99235.22;5002227;28;20065;-77
2023/09/08 01:55:43;;;;;;;11.10;6.50;;;;;;;17.97;68.45;99235.84;5001104;28;20387;-77
2023/09/08 01:58:08;;;;;;;12.30;7.05;;;;;;;18.03;67.43;99226.59;5007845;28;20806;-77
2023/09/08 02:00:33;;;;;;;13.10;7.25;;;;;;;17.94;67.81;99237.22;5005016;28;20100;-77
2023/09/08 02:02:59;;;;;;;9.20;6.57;;;;;;;17.96;68.15;99223.44;5001890;28;20038;-78
2023/09/08 02:05:26;;;;;;;11.10;6.47;;;;;;;17.96;68.16;99235.03;5003009;28;20164;-77
2023/09/08 02:07:52;;;;;;;12.43;5.78;;;;;;;17.77;68.06;99228.78;5001440;28;20092;-77
2023/09/08 02:10:17;;;;;;;9.85;6.68;;;;;;;17.83;68.10;99240.31;5002923;28;20030;-77
2023/09/08 02:12:43;;;;;;;9.90;7.32;;;;;;;17.65;68.74;99227.53;5007048;28;20546;-77
2023/09/08 02:15:10;;;;;;;13.75;7.25;;;;;;;17.63;68.41;99219.72;4999556;28;20121;-78
2023/09/08 02:17:36;;;;;;;10.27;6.72;;;;;;;17.62;68.83;99223.53;5002124;28;20042;-78
2023/09/08 02:20:01;;;;;;;6.60;5.90;;;;;;;17.48;68.90;99221.72;5001224;28;20852;-78
2023/09/08 02:22:27;;;;;;;9.65;6.32;;;;;;;17.37;69.62;99229.13;5006114;28;20041;-77
2023/09/08 02:24:52;;;;;;;9.85;7.05;;;;;;;16.95;70.42;99224.31;5003998;28;20029;-77
2023/09/08 02:27:19;;;;;;;9.15;7.65;;;;;;;17.21;69.52;99227.66;5001742;28;20037;-77
2023/09/08 02:29:44;;;;;;;10.00;7.22;;;;;;;17.34;70.02;99224.28;5003071;28;20068;-78
2023/09/08 02:32:10;;;;;;;8.82;7.72;;;;;;;17.53;69.35;99227.94;5011135;28;20429;-78
2023/09/08 02:34:39;;;;;;;9.10;6.97;;;;;;;17.14;70.40;99222.56;5020721;28;20088;-78
2023/09/08 02:37:04;;;;;;;10.40;6.57;;;;;;;17.27;70.13;99225.69;5006618;28;20112;-77
2023/09/08 02:39:30;;;;;;;11.57;7.15;;;;;;;17.35;69.52;99215.09;5008702;28;20160;-77
2023/09/08 02:41:55;;;;;;;9.93;7.22;;;;;;;17.42;69.42;99217.47;5019773;28;20049;-78
2023/09/08 02:44:21;;;;;;;11.65;7.72;;;;;;;17.24;70.21;99218.97;4986662;28;20082;-77
2023/09/08 02:46:47;;;;;;;9.27;7.25;;;;;;;17.41;69.37;99227.44;5000676;28;20111;-78
2023/09/08 02:49:13;;;;;;;9.32;7.47;;;;;;;17.48;69.52;99224.41;5004186;28;20081;-78
2023/09/08 02:51:38;;;;;;;8.52;7.65;;;;;;;17.42;69.74;99222.88;5004202;28;20026;-78
2023/09/08 02:54:04;;;;;;;11.48;7.43;;;;;;;17.34;70.08;99221.59;4984182;28;20498;-77
2023/09/08 02:56:29;;;;;;;12.02;7.72;;;;;;;17.32;69.93;99225.66;5004387;28;20030;-78
2023/09/08 02:58:55;;;;;;;9.90;7.57;;;;;;;17.41;69.94;99224.75;5003283;28;20040;-77
2023/09/08 03:01:20;;;;;;;9.88;7.38;;;;;;;17.27;70.47;99226.50;5005226;28;20037;-77
2023/09/08 03:03:46;;;;;;;11.98;7.95;;;;;;;17.35;70.44;99220.50;5004545;28;20483;-77
2023/09/08 03:06:15;;;;;;;9.15;7.22;;;;;;;17.25;70.29;99215.97;4999910;28;20158;-77
2023/09/08 03:08:40;;;;;;;10.82;7.55;;;;;;;17.25;70.67;99217.91;5001824;28;20048;-77
2023/09/08 03:11:06;;;;;;;10.32;7.85;;;;;;;17.35;70.25;99217.81;4999440;28;20030;-77
2023/09/08 03:13:33;;;;;;;9.25;6.93;;;;;;;17.24;70.60;99213.56;4996555;28;20121;-77
2023/09/08 03:16:03;;;;;;;15.52;7.90;;;;;;;17.17;70.55;99222.00;4995095;28;20043;-77
2023/09/08 03:18:28;;;;;;;8.70;7.80;;;;;;;17.20;70.85;99212.53;5014991;28;20037;-77
2023/09/08 03:20:54;;;;;;;7.70;6.85;;;;;;;17.14;71.09;99208.28;5001927;28;20030;-78
2023/09/08 03:23:19;;;;;;;8.95;7.97;;;;;;;17.30;70.56;99215.13;5020502;28;20045;-78
2023/09/08 03:25:44;;;;;;;10.38;7.55;;;;;;;17.12;70.94;99215.84;5015951;28;20088;-78
2023/09/08 03:28:10;;;;;;;13.20;7.90;;;;;;;17.07;71.15;99213.19;5008418;28;20041;-79
2023/09/08 03:30:35;;;;;;;8.23;7.22;;;;;;;17.11;71.24;99219.63;5014006;28;20026;-79
2023/09/08 03:33:00;;;;;;;11.35;8.00;;;;;;;17.11;71.32;99215.03;5006475;28;20037;-79
2023/09/08 03:35:26;;;;;;;10.00;8.15;;;;;;;17.05;71.40;99218.06;5002907;28;20038;-78
2023/09/08 03:37:51;;;;;;;11.32;8.10;;;;;;;17.21;70.69;99214.16;5017957;28;20065;-79
2023/09/08 03:40:16;;;;;;;8.77;7.82;;;;;;;17.16;70.83;99211.50;4999318;28;20106;-78
2023/09/08 03:42:42;;;;;;;12.18;8.45;;;;;;;17.10;71.08;99215.31;5002550;28;20030;-78
2023/09/08 03:45:08;;;;;;;12.65;8.15;;;;;;;17.00;71.25;99210.81;5011084;28;20030;-78
2023/09/08 03:47:34;;;;;;;9.40;7.45;;;;;;;16.97;71.44;99216.75;4999336;28;20034;-78
2023/09/08 03:49:59;;;;;;;9.30;7.97;;;;;;;17.03;71.13;99209.44;5005822;28;20045;-77
2023/09/08 03:52:25;;;;;;;14.00;7.95;;;;;;;16.99;71.15;99200.31;5010659;28;20044;-78
2023/09/08 03:54:50;;;;;;;10.00;7.90;;;;;;;17.08;71.02;99201.31;5008874;28;20056;-78
2023/09/08 03:57:15;;;;;;;9.15;7.50;;;;;;;17.05;71.20;99208.06;5005124;28;20041;-78
2023/09/08 03:59:41;;;;;;;9.65;7.72;;;;;;;17.09;70.99;99208.31;5004509;28;20033;-78
2023/09/08 04:02:06;;;;;;;10.43;7.70;;;;;;;17.07;71.02;99207.78;5001669;28;20041;-78
2023/09/08 04:04:31;;;;;;;10.73;7.38;;;;;;;16.98;70.81;99204.88;4998101;28;20064;-78
2023/09/08 04:06:57;;;;;;;8.63;7.22;;;;;;;17.11;70.91;99203.44;5000288;28;20036;-78
2023/09/08 04:09:22;;;;;;;11.07;7.28;;;;;;;17.01;70.87;99207.03;5007546;28;20486;-80
2023/09/08 04:11:47;;;;;;;13.93;7.78;;;;;;;17.11;70.46;99203.44;5001934;28;20068;-78
2023/09/08 04:14:13;;;;;;;10.98;7.88;;;;;;;16.95;70.69;99208.13;5006928;28;20041;-77
2023/09/08 04:16:38;;;;;;;11.82;7.63;;;;;;;16.92;71.06;99203.31;5004699;28;20025;-78
2023/09/08 04:19:03;;;;;;;13.13;7.82;;;;;;;16.96;70.75;99208.94;5006716;28;20034;-78
2023/09/08 04:21:29;;;;;;;12.57;7.63;;;;;;;17.02;70.86;99199.72;5018363;28;20363;-76
2023/09/08 04:23:54;;;;;;;12.10;7.20;;;;;;;16.83;71.04;99194.22;5000315;28;20482;-77
2023/09/08 04:26:19;;;;;;;12.25;7.53;;;;;;;16.77;71.80;99200.72;4996583;28;20499;-76
2023/09/08 04:28:45;;;;;;;11.85;8.75;;;;;;;16.82;70.66;99197.97;5003270;28;20076;-76
2023/09/08 04:31:10;;;;;;;15.70;8.80;;;;;;;16.86;70.90;99195.53;4987109;28;20105;-76
2023/09/08 04:33:35;;;;;;;12.00;8.55;;;;;;;16.86;70.75;99200.94;5000275;28;20088;-76
2023/09/08 04:36:01;;;;;;;11.32;7.50;;;;;;;16.86;70.60;99198.25;5005335;28;20084;-76
2023/09/08 04:38:26;;;;;;;10.70;8.35;;;;;;;16.88;70.74;99187.97;5021468;28;20026;-76
2023/09/08 04:40:51;;;;;;;13.23;8.38;;;;;;;16.88;70.55;99196.06;5004970;28;20089;-76
2023/09/08 04:43:17;;;;;;;14.63;8.25;;;;;;;16.87;70.96;99197.13;5001479;28;20037;-77
2023/09/08 04:45:42;;;;;;;9.98;7.80;;;;;;;16.98;70.35;99201.38;5005656;28;20053;-76
2023/09/08 04:48:07;;;;;;;11.02;8.07;;;;;;;16.80;70.66;99192.06;4997027;28;20030;-76
2023/09/08 04:50:34;;;;;;;8.23;7.40;;;;;;;16.94;70.30;99200.34;4996243;28;20491;-75
2023/09/08 04:53:00;;;;;;;10.73;7.80;;;;;;;16.93;70.27;99196.81;4996232;28;20093;-76
2023/09/08 04:55:25;;;;;;;9.30;7.70;;;;;;;16.88;70.74;99204.16;5007682;28;21955;-75
2023/09/08 04:57:50;;;;;;;10.38;7.78;;;;;;;16.74;70.74;99211.25;5000244;28;20034;-76
2023/09/08 05:00:16;;;;;;;9.02;8.13;;;;;;;16.60;71.27;99213.75;5014390;28;20080;-76
2023/09/08 05:02:42;;;;;;;8.27;7.05;;;;;;;16.70;71.46;99208.31;5003457;28;20509;-75
2023/09/08 05:05:07;;;;;;;12.45;8.70;;;;;;;16.57;71.69;99208.94;5006802;28;20120;-76
2023/09/08 05:07:33;;;;;;;13.38;8.65;;;;;;;16.59;71.56;99212.16;5029349;28;20125;-80
2023/09/08 05:09:58;;;;;;;9.15;7.88;;;;;;;16.61;71.82;99217.25;5010931;28;20048;-75
2023/09/08 05:12:24;;;;;;;14.70;8.73;;;;;;;16.61;71.80;99215.38;4999123;28;20072;-76
2023/09/08 05:14:49;;;;;;;10.32;8.43;;;;;;;16.53;72.18;99223.25;4997559;28;20041;-76
2023/09/08 05:17:14;;;;;;;9.68;8.68;;;;;;;16.48;72.50;99219.47;5002973;28;20030;-76
2023/09/08 05:19:40;;;;;;;12.38;8.05;;;;;;;16.49;72.43;99215.66;5000139;28;20033;-76
2023/09/08 05:22:08;;;;;;;10.30;7.93;;;;;;;16.48;72.05;99219.47;5001990;28;20083;-76
2023/09/08 05:24:34;;;;;;;13.82;8.27;;;;;;;16.49;72.80;99217.56;5014149;28;20030;-77
2023/09/08 05:26:59;;;;;;;12.95;8.25;;;;;;;16.52;72.47;99224.31;5013150;28;20041;-76
2023/09/08 05:29:24;;;;;;;10.02;8.27;;;;;;;16.55;72.45;99216.50;4999320;28;20058;-77
2023/09/08 05:31:50;;;;;;;10.80;7.90;;;;;;;16.60;73.01;99218.34;4997362;28;20045;-76
2023/09/08 05:34:15;;;;;;;11.10;9.27;;;;;;;16.55;72.80;99215.69;5019746;28;20061;-77
2023/09/08 05:36:42;;;;;;;9.82;8.23;;;;;;;16.62;73.03;99218.88;5004134;28;20038;-76
2023/09/08 05:39:08;;;;;;;13.38;8.20;;;;;;;16.62;73.16;99222.34;4998390;28;21647;-77
2023/09/08 05:41:33;;;;;;;10.23;8.73;;;;;;;16.72;72.65;99216.94;5001904;28;20033;-77
2023/09/08 05:43:59;;;;;;;9.80;7.70;;;;;;;16.79;73.39;99219.31;5002626;28;20042;-77
2023/09/08 05:46:24;;;;;;;10.75;8.40;;;;;;;16.80;72.24;99216.31;5007836;28;20037;-76
2023/09/08 05:48:50;;;;;;;14.25;8.77;;;;;;;16.95;72.39;99216.22;5001930;28;20475;-77
2023/09/08 05:51:15;;;;;;;8.82;7.93;;;;;;;16.78;72.82;99223.06;5017039;28;20034;-76
2023/09/08 05:53:41;;;;;;;8.63;7.78;;;;;;;16.97;72.16;99210.56;4999411;28;20025;-77
2023/09/08 05:56:07;;;;;;;10.52;8.40;;;;;;;16.85;72.68;99213.59;5002260;28;20034;-77
2023/09/08 05:58:33;;;;;;;9.88;8.90;;;;;;;16.95;72.81;99218.91;5002818;28;20822;-77
2023/09/08 06:01:03;;;;;;;9.00;6.85;;;;;;;17.01;72.77;99215.13;5004027;28;20030;-78
2023/09/08 06:03:29;;;;;;;13.20;8.90;;;;;;;17.12;72.04;99215.84;5023932;28;20113;-75
2023/09/08 06:05:56;;;;;;;9.77;8.70;;;;;;;17.12;72.30;99221.25;5008258;28;20030;-78
2023/09/08 06:08:21;;;;;;;10.05;8.82;;;;;;;17.14;72.49;99217.19;5005067;28;20049;-78
2023/09/08 06:10:47;;;;;;;12.90;8.40;;;;;;;16.92;73.75;99224.06;5008345;28;20034;-76
2023/09/08 06:13:12;;;;;;;9.27;8.27;;;;;;;16.98;73.02;99217.56;4998994;28;20967;-78
2023/09/08 06:15:37;;;;;;;11.50;8.15;;;;;;;17.25;72.57;99226.00;5000831;28;20121;-77
2023/09/08 06:18:03;;;;;;;12.23;8.68;;;;;;;17.16;72.91;99225.78;5000684;28;20040;-75
2023/09/08 06:20:28;;;;;;;10.40;8.57;;;;;;;17.13;73.07;99231.75;5000290;28;20042;-76
2023/09/08 06:22:54;;;;;;;17.08;10.05;;;;;;;17.06;73.27;99225.03;5000193;28;20180;-76
2023/09/08 06:25:19;;;;;;;13.10;9.70;;;;;;;16.98;74.36;99233.72;5019968;28;20124;-76
2023/09/08 06:27:44;;;;;;;10.90;7.28;;;;;;;17.19;72.30;99227.91;5002581;28;20082;-76
2023/09/08 06:30:13;;;;;;;10.00;8.68;;;;;;;17.10;73.31;99236.91;5004716;28;20658;-77
2023/09/08 06:32:38;;;;;;;11.88;8.65;;;;;;;17.22;72.16;99223.84;5002741;28;20033;-76
2023/09/08 06:35:04;;;;;;;11.45;8.70;;;;;;;17.15;72.87;99224.16;5003981;28;20030;-77
2023/09/08 06:37:35;;;;;;;14.23;9.98;;;;;;;16.94;75.53;99233.50;5004229;28;20489;-74
2023/09/08 06:40:01;;;;;;;10.80;8.10;;;;;;;17.09;73.48;99224.50;5002114;28;20030;-75
2023/09/08 06:42:26;;;;;;;13.82;10.43;;;;;;;17.04;75.24;99221.81;4986483;28;20049;-76
2023/09/08 06:44:51;;;;;;;11.52;9.38;;;;;;;17.04;73.87;99221.81;5003864;28;20053;-76
2023/09/08 06:47:17;;;;;;;11.18;9.63;;;;;;;17.13;75.39;99225.53;4998633;28;20558;-75
2023/09/08 06:49:42;;;;;;;10.02;8.77;;;;;;;17.07;74.04;99222.09;5003924;28;20034;-75
2023/09/08 06:52:07;;;;;;;10.73;8.63;;;;;;;16.96;74.29;99225.13;5002591;28;20038;-75
2023/09/08 06:54:33;;;;;;;10.57;8.32;;;;;;;16.85;75.80;99223.56;4996949;28;20026;-75
2023/09/08 06:56:58;;;;;;;11.20;9.85;;;;;;;16.64;77.82;99227.50;5005461;28;20391;-75
2023/09/08 06:59:23;;;;;;;18.90;12.93;;;;;;;16.70;78.67;99227.19;5005478;28;20049;-73
2023/09/08 07:01:49;;;;;;;12.73;11.27;;;;;;;16.45;81.36;99232.66;4999673;28;20087;-74
2023/09/08 07:04:14;;;;;;;15.95;12.25;;;;;;;16.39;80.76;99234.59;4985381;28;20525;-74
2023/09/08 07:06:41;;;;;;;12.82;9.07;;;;;;;16.96;77.27;99235.91;5003785;28;20462;-73
2023/09/08 07:09:07;;;;;;;12.88;9.45;;;;;;;17.09;76.27;99230.69;5002761;28;20025;-74
2023/09/08 07:11:33;;;;;;;11.30;9.32;;;;;;;17.11;75.87;99227.69;5001362;28;20097;-75
2023/09/08 07:13:58;;;;;;;18.33;12.23;;;;;;;16.73;79.56;99236.59;5000356;28;20829;-74
2023/09/08 07:16:24;;;;;;;12.02;8.65;;;;;;;16.84;77.40;99228.16;4998041;28;20582;-74
2023/09/08 07:18:50;;;;;;;16.85;11.23;;;;;;;16.88;79.79;99231.94;5015743;28;20762;-73
2023/09/08 07:21:15;;;;;;;16.08;10.63;;;;;;;16.79;81.54;99230.91;5001764;28;20041;-74
2023/09/08 07:23:40;;;;;;;11.98;10.00;;;;;;;17.01;79.13;99231.31;5006299;28;20061;-74
2023/09/08 07:26:06;;;;;;;14.95;10.90;;;;;;;16.96;80.11;99236.72;5007693;28;20746;-74
2023/09/08 07:28:31;;;;;;;13.07;10.48;;;;;;;16.97;79.91;99229.44;5008632;28;20026;-76
2023/09/08 07:31:04;;;;;;;11.45;8.95;;;;;;;17.28;77.16;99233.50;5001292;28;20022;-76
2023/09/08 07:33:29;;;;;;;11.10;8.90;;;;;;;17.48;76.10;99225.25;5004582;28;20021;-75
2023/09/08 07:35:55;;;;;;;11.85;10.13;;;;;;;17.24;79.42;99232.47;5005507;28;20656;-76
2023/09/08 07:38:20;;;;;;;13.35;11.30;;;;;;;17.16;79.55;99230.38;5006108;28;20033;-76
2023/09/08 07:40:46;;;;;;;14.48;9.98;;;;;;;17.34;78.57;99228.88;5007726;28;20180;-76
2023/09/08 07:43:11;;;;;;;13.05;11.20;;;;;;;17.23;79.68;99228.94;5007797;28;20025;-76
2023/09/08 07:45:36;;;;;;;11.60;9.32;;;;;;;17.28;79.83;99236.19;5021229;28;20398;-76
2023/09/08 07:48:02;;;;;;;11.70;9.07;;;;;;;17.73;76.23;99233.13;5010582;28;20052;-76
2023/09/08 07:50:28;;;;;;;10.23;7.97;;;;;;;18.02;75.13;99235.00;5008272;28;20165;-74
2023/09/08 07:52:56;;;;;;;11.18;9.13;;;;;;;18.26;74.12;99225.00;5005078;28;20044;-75
2023/09/08 07:55:22;;;;;;;11.38;7.72;;;;;;;18.33;73.89;99228.13;5006451;28;20026;-75
2023/09/08 07:57:49;;;;;;;8.98;8.07;;;;;;;18.33;73.45;99225.41;5007465;28;20025;-75
2023/09/08 08:00:16;;;;;;;10.05;8.48;;;;;;;18.30;74.27;99224.13;5008429;28;20483;-75
2023/09/08 08:02:53;;;;;;;11.40;8.57;;;;;;;18.39;73.57;99222.38;5004652;28;20034;-75
2023/09/08 08:05:18;;;;;;;10.15;8.75;;;;;;;18.52;73.04;99218.19;5008171;28;20030;-74
2023/09/08 08:07:44;;;;;;;12.25;9.40;;;;;;;18.56;74.06;99230.03;5007785;28;20153;-74
2023/09/08 08:10:10;;;;;;;14.93;9.30;;;;;;;18.39;74.52;99224.28;5010245;28;20137;-74
2023/09/08 08:12:37;;;;;;;11.38;9.10;;;;;;;18.60;73.13;99217.53;5005356;28;20031;-75
2023/09/08 08:15:04;;;;;;;12.38;8.32;;;;;;;18.39;74.83;99227.78;5008332;28;20048;-75
2023/09/08 08:17:30;;;;;;;13.57;9.93;;;;;;;18.22;76.95;99234.75;5008161;28;20406;-74
2023/09/08 08:19:58;;;;;;;11.00;8.20;;;;;;;18.77;73.21;99222.44;5003938;28;20029;-75
2023/09/08 08:22:24;;;;;;;14.85;9.98;;;;;;;18.48;76.43;99222.56;5008490;28;20030;-74
2023/09/08 08:24:49;;;;;;;14.73;10.20;;;;;;;18.52;75.82;99213.56;5005381;28;20035;-75
2023/09/08 08:27:15;;;;;;;13.70;10.50;;;;;;;18.45;76.48;99221.25;5007357;28;20521;-75
2023/09/08 08:29:40;;;;;;;14.00;10.25;;;;;;;18.46;75.83;99212.03;5009512;28;20046;-75
2023/09/08 08:32:06;;;;;;;13.70;10.57;;;;;;;18.61;75.32;99221.84;5011102;28;20036;-74
2023/09/08 08:34:31;;;;;;;10.55;8.07;;;;;;;18.81;76.18;99213.44;5008232;28;20125;-74
2023/09/08 08:36:57;;;;;;;10.63;8.02;;;;;;;18.98;73.42;99218.34;5010097;28;20040;-75
2023/09/08 08:39:22;;;;;;;11.90;8.52;;;;;;;19.11;73.06;99212.97;5008573;28;20030;-75
2023/09/08 08:41:47;;;;;;;10.15;8.10;;;;;;;19.15;73.26;99211.31;5006773;28;20026;-74
2023/09/08 08:44:15;;;;;;;13.88;9.77;;;;;;;19.02;76.42;99209.34;5008039;28;20045;-75
2023/09/08 08:46:42;;;;;;;12.05;9.38;;;;;;;18.95;74.32;99200.78;5010328;28;20033;-75
2023/09/08 08:49:10;;;;;;;11.75;9.15;;;;;;;19.05;75.20;99197.91;5010232;28;20034;-74
2023/09/08 08:51:37;;;;;;;11.00;8.00;;;;;;;19.41;72.96;99206.28;5011840;28;20025;-74
2023/09/08 08:54:04;;;;;;;11.05;8.18;;;;;;;19.41;74.03;99209.00;5009525;28;20053;-74
2023/09/08 08:56:31;;;;;;;18.58;9.10;;;;;;;19.40;74.82;99200.06;5007698;28;20037;-74
2023/09/08 08:58:57;;;;;;;7.90;7.10;;;;;;;19.71;72.23;99199.53;5010526;28;20073;-74
2023/09/08 09:01:26;;;;;;;9.93;8.23;;;;;;;19.60;74.37;99206.22;5005534;28;20120;-74
2023/09/08 09:03:51;;;;;;;11.15;8.43;;;;;;;19.78;72.66;99205.34;5005430;28;20489;-75
2023/09/08 09:06:17;;;;;;;12.02;9.27;;;;;;;19.62;73.71;99202.13;5003613;28;20030;-74
2023/09/08 09:08:44;;;;;;;16.83;8.52;;;;;;;19.63;74.74;99205.63;5006355;28;20036;-73
2023/09/08 09:11:10;;;;;;;12.18;9.55;;;;;;;19.77;74.54;99195.59;5006898;28;20046;-75
2023/09/08 09:13:35;;;;;;;10.73;8.63;;;;;;;20.09;72.31;99198.25;5008752;28;20806;-75
2023/09/08 09:16:03;;;;;;;11.95;9.35;;;;;;;19.99;73.41;99185.69;5001676;28;20038;-72
2023/09/08 09:18:31;;;;;;;9.20;7.55;;;;;;;20.20;72.26;99196.94;5003242;28;20033;-75
2023/09/08 09:21:00;;;;;;;10.68;8.27;;;;;;;20.04;73.54;99198.34;4996801;28;20569;-75
2023/09/08 09:23:29;;;;;;;14.93;8.48;;;;;;;20.23;73.03;99199.06;5002837;28;20041;-74
2023/09/08 09:25:54;;;;;;;10.07;9.07;;;;;;;20.21;73.55;99192.34;5002776;28;20403;-74
2023/09/08 09:28:19;;;;;;;10.77;9.32;;;;;;;20.25;72.91;99196.06;5003362;28;20040;-76
2023/09/08 09:30:51;;;;;;;7.57;6.88;;;;;;;20.64;71.63;99185.44;5001292;28;20062;-75
2023/09/08 09:33:17;;;;;;;13.60;8.07;;;;;;;20.57;71.78;99185.06;5000344;28;20045;-76
2023/09/08 09:35:51;;;;;;;9.95;8.93;;;;;;;20.65;72.16;99197.88;5003603;28;20094;-76
2023/09/08 09:38:18;;;;;;;10.18;7.85;;;;;;;20.70;72.19;99197.78;5003923;28;20034;-76
2023/09/08 09:40:44;;;;;;;12.93;9.27;;;;;;;20.82;72.31;99203.47;5008142;28;20100;-76
2023/09/08 09:43:11;;;;;;;14.80;9.90;;;;;;;21.04;71.78;99200.00;5002020;28;20034;-76
2023/09/08 09:45:38;;;;;;;12.10;8.55;;;;;;;20.90;70.83;99195.38;5007197;28;20534;-75
2023/09/08 09:48:05;;;;;;;12.38;8.05;;;;;;;21.15;71.00;99187.78;5008773;28;20059;-76
2023/09/08 09:50:41;;;;;;;10.38;8.50;;;;;;;21.21;71.98;99189.28;5008724;28;20060;-76
2023/09/08 09:53:15;;;;;;;12.38;8.77;;;;;;;21.41;70.62;99196.91;5010308;28;20505;-76
2023/09/08 09:55:43;;;;;;;8.27;7.47;;;;;;;21.55;70.42;99189.47;5006469;28;20039;-76
2023/09/08 09:58:10;;;;;;;11.57;8.57;;;;;;;21.61;70.83;99189.03;5003988;28;20678;-76
2023/09/08 10:00:37;;;;;;;9.23;7.85;;;;;;;21.77;69.54;99184.00;5007163;28;20030;-76
2023/09/08 10:03:04;;;;;;;10.60;8.05;;;;;;;21.85;68.66;99171.56;5008014;28;20025;-76
2023/09/08 10:05:29;;;;;;;10.65;8.43;;;;;;;22.09;68.07;99174.69;5009793;28;20494;-77
2023/09/08 10:07:56;;;;;;;9.70;7.70;;;;;;;21.93;69.62;99176.25;5006485;28;20105;-77
2023/09/08 10:10:22;;;;;;;11.18;8.95;;;;;;;22.08;68.61;99168.44;5008563;28;20026;-76
2023/09/08 10:12:57;;;;;;;9.43;8.05;;;;;;;22.18;67.86;99170.91;5009482;28;20072;-77
2023/09/08 10:15:23;;;;;;;11.93;9.98;;;;;;;22.33;68.48;99175.88;5008251;28;20041;-77
2023/09/08 10:17:55;;;;;;;14.10;8.40;;;;;;;22.32;67.63;99171.56;5006875;28;20025;-76
2023/09/08 10:20:22;;;;;;;8.25;7.03;;;;;;;22.59;67.91;99164.22;5007515;28;20026;-77
2023/09/08 10:22:52;;;;;;;9.57;7.78;;;;;;;22.62;67.43;99161.72;5006859;28;20089;-77
2023/09/08 10:25:20;;;;;;;8.65;7.32;;;;;;;23.00;65.99;99151.75;5002465;28;20088;-77
2023/09/08 10:27:46;;;;;;;8.82;7.95;;;;;;;23.02;65.76;99159.63;5003272;28;20049;-77
2023/09/08 10:30:12;;;;;;;8.68;7.47;;;;;;;22.98;66.45;99150.47;5006501;28;20060;-77
2023/09/08 10:32:41;;;;;;;17.00;9.10;;;;;;;23.01;66.96;99153.38;5005559;28;20026;-77
2023/09/08 10:35:06;;;;;;;10.32;7.20;;;;;;;;;;5022112;28;20033;-77
2023/09/08 10:37:32;;;;;;;15.98;8.55;;;;;;;23.17;66.30;99150.16;5004319;28;20524;-77
2023/09/08 10:40:20;;;;;;;10.48;7.72;;;;;;;23.46;64.15;99147.56;5004598;28;20491;-76
2023/09/08 10:42:46;;;;;;;15.02;8.10;;;;;;;23.52;64.73;99146.25;4999041;28;20065;-77
2023/09/08 10:45:20;;;;;;;11.43;7.60;;;;;;;23.67;64.57;99146.50;5009614;28;20060;-77
2023/09/08 10:47:45;;;;;;;8.68;7.35;;;;;;;23.81;64.42;99144.34;5029175;28;20463;-77
2023/09/08 10:50:26;;;;;;;11.82;7.65;;;;;;;23.90;63.26;99141.56;5007714;28;20037;-76
2023/09/08 10:53:07;;;;;;;8.15;7.28;;;;;;;24.09;63.09;99146.66;5030280;28;20056;-75
2023/09/08 10:55:51;;;;;;;8.77;7.50;;;;;;;24.34;62.82;99143.75;5010733;28;20034;-77
2023/09/08 10:58:37;;;;;;;7.45;6.72;;;;;;;24.52;61.87;99142.53;5011312;28;20017;-77
2023/09/08 11:01:04;;;;;;;7.43;6.32;;;;;;;24.69;61.31;99140.78;5012673;28;20034;-77
2023/09/08 11:03:38;;;;;;;9.10;6.72;;;;;;;24.76;61.38;99141.06;5014151;28;20038;-77
2023/09/08 11:06:06;;;;;;;10.65;6.65;;;;;;;24.72;59.82;99137.38;5012871;28;20677;-76
2023/09/08 11:08:41;;;;;;;13.10;6.63;;;;;;;24.82;60.90;99140.53;5012545;28;20509;-76
2023/09/08 11:11:07;;;;;;;7.30;6.60;;;;;;;25.09;59.98;99141.91;5010965;28;20026;-77
2023/09/08 11:13:32;;;;;;;12.35;7.03;;;;;;;25.26;58.09;99137.06;5011779;28;20429;-77
2023/09/08 11:15:58;;;;;;;8.73;6.18;;;;;;;25.49;59.01;99139.41;5011914;28;20244;-77
2023/09/08 11:18:27;;;;;;;9.95;6.18;;;;;;;25.52;56.39;99130.50;5013009;28;20135;-77
2023/09/08 11:20:55;;;;;;;9.40;6.13;;;;;;;25.75;56.04;99132.47;5011039;28;20061;-76
2023/09/08 11:23:21;;;;;;;6.72;6.07;;;;;;;26.01;56.90;99132.16;5012981;28;20052;-77